Flight Track Log - Related Links

Times and Time Zones

All times are in EDT time to prevent confusion due to time zone crossing. See the SWA2141 flight status page for this flight to view local times or setup timezone preferences in your user account.

Time Position Orientation Groundspeed Altitude Reporting Facility
EDT Latitude Longitude Course Direction KTS MPH feet Rate Location/Type
Sun 01:23:36 PM 40.7333 -73.8333 270° West 188 216 2,200  Level New York TRACON
Sun 01:24:42 PM 40.6833 -73.8500 194° South 200 230 5,400 3,200 Climbing New York TRACON
Sun 01:25:36 PM 40.6833 -73.9333 270° West 225 259 8,600 2,895 Climbing New York TRACON
Sun 01:26:36 PM 40.7167 -74.0000 303° West 273 314 10,900 2,600 Climbing New York TRACON
Sun 01:27:36 PM 40.7333 -74.1167 281° West 323 372 13,800 2,050 Climbing New York TRACON
Sun 01:28:36 PM 40.7333 -74.2500 270° West 375 432 15,000 1,143 Climbing New York TRACON
Sun 01:29:00 PM 40.7833 -74.6310 270° West  Level FlightAware Approximate
Sun 01:29:42 PM 40.7500 -74.3833 279° West 337 388 16,200  Level New York TRACON
Sun 01:31:02 PM 40.7600 -74.5325 275° West 349 402 17,000 1,157 Climbing New York Center
Sun 01:32:02 PM 40.7719 -74.6758 276° West 355 409 18,900 2,250 Climbing New York Center
Sun 01:33:02 PM 40.7800 -74.8106 275° West 362 417 21,500 2,500 Climbing New York Center
Sun 01:34:02 PM 40.7897 -74.9481 275° West 374 430 23,900 2,250 Climbing New York Center
Sun 01:35:02 PM 40.7619 -75.0833 255° West 379 436 26,000 1,950 Climbing New York Center
Sun 01:36:02 PM 40.7217 -75.2178 248° West 387 445 27,800 1,700 Climbing New York Center
Sun 01:37:02 PM 40.6808 -75.3603 249° West 401 461 29,400 1,850 Climbing New York Center
Sun 01:38:02 PM 40.6397 -75.5022 249° West 413 475 31,500 2,050 Climbing New York Center
Sun 01:39:02 PM 40.5986 -75.6444 249° West 413 475 33,500 1,850 Climbing New York Center
Sun 01:40:02 PM 40.5594 -75.7808 249° West 413 475 35,200 1,550 Climbing New York Center
Sun 01:41:02 PM 40.5181 -75.9172 248° West 413 475 36,600 1,400 Climbing New York Center
Sun 01:42:02 PM 40.4775 -76.0342 246° West 406 467 38,000 700 Climbing New York Center
Sun 01:43:02 PM 40.4381 -76.1703 249° West 401 461 38,000  Level New York Center
Sun 01:44:03 PM 40.3983 -76.3089 249° West 401 461 38,000  Level New York Center
Sun 01:45:02 PM 40.3586 -76.4419 249° West 401 461 38,000  Level New York Center
Sun 01:46:03 PM 40.3211 -76.5722 249° West 401 461 38,000  Level New York Center
Sun 01:47:03 PM 40.2953 -76.7144 257° West 401 461 38,000  Level New York Center
Sun 01:48:02 PM 40.2861 -76.8553 265° West 396 456 38,000  Level New York Center
Sun 01:49:02 PM 40.2806 -76.9989 267° West 391 450 38,000  Level New York Center
Sun 01:50:02 PM 40.2708 -77.1422 265° West 391 450 38,000  Level New York Center
Sun 01:51:02 PM 40.2647 -77.2914 267° West 391 450 38,000  Level New York Center
Sun 01:51:43 PM 40.2606 -77.3903 267° West 392 451 38,000  Level Cleveland Center
Sun 01:52:45 PM 40.2531 -77.5308 266° West 392 451 38,000  Level Cleveland Center
Sun 01:53:47 PM 40.2472 -77.6761 267° West 395 455 38,000  Level Cleveland Center
Sun 01:54:49 PM 40.2464 -77.8183 270° West 395 455 38,000  Level Cleveland Center
Sun 01:55:50 PM 40.2436 -77.9767 269° West 392 451 38,000  Level Cleveland Center
Sun 01:56:52 PM 40.2417 -78.1206 269° West 394 453 38,000  Level Cleveland Center
Sun 01:57:54 PM 40.2389 -78.2653 269° West 395 455 38,000  Level Cleveland Center
Sun 01:58:56 PM 40.2367 -78.4114 269° West 399 459 38,000  Level Cleveland Center
Sun 01:59:57 PM 40.2339 -78.5553 269° West 399 459 38,000  Level Cleveland Center
Sun 02:00:59 PM 40.2308 -78.7003 268° West 399 459 38,000  Level Cleveland Center
Sun 02:02:01 PM 40.2281 -78.8697 269° West 393 452 38,000  Level Cleveland Center
Sun 02:03:03 PM 40.2244 -79.0122 268° West 391 450 38,000  Level Cleveland Center
Sun 02:04:05 PM 40.2214 -79.1506 268° West 386 444 38,000  Level Cleveland Center
Sun 02:05:07 PM 40.2181 -79.2878 268° West 383 441 38,000  Level Cleveland Center
Sun 02:06:08 PM 40.2139 -79.4319 268° West 382 440 38,000  Level Cleveland Center
Sun 02:07:10 PM 40.2103 -79.5692 268° West 380 437 38,000  Level Cleveland Center
Sun 02:08:12 PM 40.2047 -79.7067 267° West 379 436 38,000  Level Cleveland Center
Sun 02:09:14 PM 40.2014 -79.8461 268° West 380 437 38,000  Level Cleveland Center
Sun 02:10:16 PM 40.1953 -80.0150 267° West 381 438 38,000  Level Cleveland Center
Sun 02:11:18 PM 40.1914 -80.1575 268° West 384 442 38,000  Level Cleveland Center
Sun 02:12:20 PM 40.1864 -80.2994 267° West 386 444 38,000  Level Cleveland Center
Sun 02:13:22 PM 40.1814 -80.4417 267° West 387 445 38,000  Level Cleveland Center
Sun 02:14:24 PM 40.1761 -80.5819 267° West 387 445 38,000  Level Cleveland Center
Sun 02:15:26 PM 40.1714 -80.7217 268° West 387 445 38,000  Level Cleveland Center
Sun 02:16:28 PM 40.1661 -80.8622 267° West 386 444 38,000  Level Cleveland Center
Sun 02:17:30 PM 40.1597 -81.0006 267° West 385 443 38,000  Level Cleveland Center
Sun 02:18:31 PM 40.1531 -81.1700 267° West 389 448 38,000  Level Cleveland Center
Sun 02:19:33 PM 40.1458 -81.3097 266° West 388 447 38,000  Level Cleveland Center
Sun 02:20:35 PM 40.1408 -81.4506 267° West 388 447 38,000  Level Cleveland Center
Sun 02:21:37 PM 40.1336 -81.5894 266° West 387 445 38,000  Level Cleveland Center
Sun 02:22:39 PM 40.1272 -81.7439 267° West 387 445 38,000  Level Cleveland Center
Sun 02:23:20 PM 40.1231 -81.8281 266° West 386 444 38,000  Level Indianapolis Center
Sun 02:24:22 PM 40.1169 -81.9656 267° West 385 443 38,000  Level Indianapolis Center
Sun 02:25:24 PM 40.1097 -82.1047 266° West 385 443 38,000  Level Indianapolis Center
Sun 02:26:26 PM 40.1011 -82.2672 266° West 380 437 38,000  Level Indianapolis Center
Sun 02:27:27 PM 40.0944 -82.4025 266° West 378 435 38,000  Level Indianapolis Center
Sun 02:28:29 PM 40.0864 -82.5372 266° West 377 434 38,000  Level Indianapolis Center
Sun 02:29:31 PM 40.0789 -82.6731 266° West 377 434 38,000  Level Indianapolis Center
Sun 02:30:33 PM 40.0714 -82.8081 266° West 377 434 38,000  Level Indianapolis Center
Sun 02:31:34 PM 40.0639 -82.9431 266° West 377 434 38,000  Level Indianapolis Center
Sun 02:32:36 PM 40.0564 -83.0764 266° West 375 432 38,000  Level Indianapolis Center
Sun 02:33:38 PM 40.0467 -83.2364 266° West 375 432 38,000  Level Indianapolis Center
Sun 02:34:40 PM 40.0394 -83.3686 266° West 374 430 38,000  Level Indianapolis Center
Sun 02:35:42 PM 40.0311 -83.5014 265° West 374 430 38,000  Level Indianapolis Center
Sun 02:36:43 PM 40.0225 -83.6344 265° West 374 430 38,000  Level Indianapolis Center
Sun 02:37:45 PM 40.0128 -83.7947 266° West 374 430 38,000  Level Indianapolis Center
Sun 02:38:47 PM 40.0031 -83.9286 265° West 374 430 38,000  Level Indianapolis Center
Sun 02:39:49 PM 39.9942 -84.0636 265° West 374 430 38,000  Level Indianapolis Center
Sun 02:40:51 PM 39.9847 -84.1983 265° West 374 430 38,000  Level Indianapolis Center
Sun 02:41:53 PM 39.9750 -84.3336 265° West 374 430 38,000  Level Indianapolis Center
Sun 02:42:54 PM 39.9656 -84.4717 265° West 378 435 38,000  Level Indianapolis Center
Sun 02:43:56 PM 39.9531 -84.6364 264° West 380 437 38,000  Level Indianapolis Center
Sun 02:44:58 PM 39.9436 -84.7747 265° West 381 438 38,000  Level Indianapolis Center
Sun 02:46:00 PM 39.9339 -84.8975 264° West 382 440 38,000  Level Indianapolis Center
Sun 02:47:02 PM 39.9222 -85.0636 265° West 382 440 38,000  Level Indianapolis Center
Sun 02:48:04 PM 39.9108 -85.2014 264° West 382 440 38,000  Level Indianapolis Center
Sun 02:49:06 PM 39.9003 -85.3375 264° West 382 440 38,000  Level Indianapolis Center
Sun 02:50:08 PM 39.8900 -85.4711 264° West 378 435 38,000  Level Indianapolis Center
Sun 02:51:09 PM 39.8792 -85.6036 264° West 374 430 38,000  Level Indianapolis Center
Sun 02:52:11 PM 39.8683 -85.7350 264° West 371 427 38,000  Level Indianapolis Center
Sun 02:53:13 PM 39.8572 -85.8669 264° West 370 426 38,000 -242 Level Indianapolis Center
Sun 02:54:15 PM 39.8444 -86.0244 264° West 370 426 37,500 -677 Descending Indianapolis Center
Sun 02:55:17 PM 39.8333 -86.1553 264° West 370 426 36,600 -726 Descending Indianapolis Center
Sun 02:56:19 PM 39.8206 -86.2983 263° West 370 426 36,000 -290 Descending Indianapolis Center
Sun 02:57:21 PM 39.7972 -86.4400 258° West 376 433 36,000  Level Indianapolis Center
Sun 02:58:23 PM 39.7658 -86.5681 252° West 376 433 36,000  Level Indianapolis Center
Sun 02:59:25 PM 39.7333 -86.6967 252° West 376 433 36,000  Level Indianapolis Center
Sun 03:00:27 PM 39.7019 -86.8264 253° West 376 433 36,000  Level Indianapolis Center
Sun 03:01:28 PM 39.6692 -86.9550 252° West 376 433 36,000  Level Indianapolis Center
Sun 03:02:30 PM 39.6375 -87.0844 252° West 376 433 36,000  Level Indianapolis Center
Sun 03:03:32 PM 39.5983 -87.2403 252° West 377 434 36,000  Level Indianapolis Center
Sun 03:04:34 PM 39.5650 -87.3700 252° West 377 434 36,000  Level Indianapolis Center
Sun 03:05:36 PM 39.5322 -87.4992 252° West 377 434 36,000 -48 Level Indianapolis Center
Sun 03:06:38 PM 39.4997 -87.6281 252° West 377 434 35,900 -532 Descending Indianapolis Center
Sun 03:07:40 PM 39.4669 -87.7567 252° West 377 434 34,900 -1,452 Descending Indianapolis Center
Sun 03:08:42 PM 39.4331 -87.8894 252° West 381 438 32,900 -2,371 Descending Indianapolis Center
Sun 03:09:44 PM 39.3914 -88.0483 251° West 387 445 30,000 -1,338 Descending Indianapolis Center
Sun 03:10:52 PM 39.3575 -88.1786 251° West 384 442 30,000  Level Kansas City Center
Sun 03:11:54 PM 39.3239 -88.3061 251° West 380 437 30,000  Level Kansas City Center
Sun 03:12:56 PM 39.2833 -88.4589 251° West 379 436 30,000  Level Kansas City Center
Sun 03:13:57 PM 39.2492 -88.5864 251° West 378 435 30,000  Level Kansas City Center
Sun 03:14:59 PM 39.2197 -88.6961 251° West 378 435 30,000 -1,268 Level Kansas City Center
Sun 03:16:00 PM 39.1853 -88.8194 250° West 373 429 27,400 -2,878 Descending Kansas City Center
Sun 03:17:02 PM 39.1475 -88.9650 252° West 362 417 24,100 -2,758 Descending Kansas City Center
Sun 03:18:04 PM 39.1197 -89.0683 251° West 350 403 21,700 -2,244 Descending Kansas City Center
Sun 03:19:05 PM 39.0900 -89.1786 251° West 332 382 19,500 -2,195 Descending Kansas City Center
Sun 03:20:07 PM 39.0628 -89.3022 254° West 330 380 17,200 -1,951 Descending Kansas City Center
Sun 03:21:08 PM 39.0364 -89.4058 252° West 321 369 15,500 -1,854 Descending Kansas City Center
Sun 03:22:10 PM 39.0108 -89.5289 255° West 312 359 13,400 -1,887 Descending Kansas City Center
Sun 03:23:12 PM 38.9761 -89.6194 244° Southwest 287 330 11,600 -1,659 Descending Kansas City Center
Sun 03:24:13 PM 38.9167 -89.6939 224° Southwest 278 320 10,000 -927 Descending Kansas City Center
Sun 03:25:15 PM 38.8608 -89.7647 225° Southwest 284 327 9,700 -780 Descending Kansas City Center
Sun 03:26:16 PM 38.8131 -89.8342 229° Southwest 266 306 8,400 -1,317 Descending Kansas City Center
Sun 03:27:18 PM 38.8164 -89.9258 273° West 257 296 7,000 -1,258 Descending Kansas City Center
Sun 03:28:20 PM 38.8211 -90.0150 274° West 254 292 5,800 -1,122 Descending Kansas City Center
Sun 03:29:21 PM 38.8278 -90.0983 276° West 240 276 4,700 -1,073 Descending Kansas City Center
Sun 03:30:23 PM 38.8283 -90.1733 271° West 216 249 3,600 -1,122 Descending Kansas City Center
Sun 03:31:24 PM 38.8003 -90.2469 244° Southwest 194 223 2,400 -976 Descending Kansas City Center
Sun 03:32:26 PM 38.7811 -90.2956 243° Southwest 159 183 1,600 -726 Descending Kansas City Center
Sun 03:33:28 PM 38.7647 -90.3356 242° Southwest 134 154 900 -537 Descending Kansas City Center
Sun 03:34:29 PM 38.7497 -90.3722 242° Southwest 133 153 500 -393 Descending Kansas City Center
Sun 03:38:00 PM 38.7487 -90.3700 169° South  Level Estimated

Login

Don't have an account? Register now (free) for customized features, flight alerts, and more!